sensor_id;sensor_type;location;lat;lon;timestamp;temperature;humidity
22850;DHT22;11591;44.792;10.358;2023-03-23T00:01:29;15.40;99.90
22850;DHT22;11591;44.792;10.358;2023-03-23T00:03:57;15.40;99.90
22850;DHT22;11591;44.792;10.358;2023-03-23T00:06:25;15.30;99.90
22850;DHT22;11591;44.792;10.358;2023-03-23T00:08:52;15.30;99.90
22850;DHT22;11591;44.792;10.358;2023-03-23T00:11:26;15.20;99.90
22850;DHT22;11591;44.792;10.358;2023-03-23T00:13:55;15.20;99.90
22850;DHT22;11591;44.792;10.358;2023-03-23T00:16:24;15.20;99.90
22850;DHT22;11591;44.792;10.358;2023-03-23T00:19:05;15.10;99.90
22850;DHT22;11591;44.792;10.358;2023-03-23T00:21:35;15.00;99.90
22850;DHT22;11591;44.792;10.358;2023-03-23T00:24:03;14.90;99.90
22850;DHT22;11591;44.792;10.358;2023-03-23T00:26:29;14.80;99.90
22850;DHT22;11591;44.792;10.358;2023-03-23T00:29:00;14.70;99.90
22850;DHT22;11591;44.792;10.358;2023-03-23T00:31:26;14.70;99.90
22850;DHT22;11591;44.792;10.358;2023-03-23T00:34:03;14.60;99.90
22850;DHT22;11591;44.792;10.358;2023-03-23T00:36:31;14.60;99.90
22850;DHT22;11591;44.792;10.358;2023-03-23T00:38:57;14.60;99.90
22850;DHT22;11591;44.792;10.358;2023-03-23T00:41:25;14.50;99.90
22850;DHT22;11591;44.792;10.358;2023-03-23T00:43:57;14.50;99.90
22850;DHT22;11591;44.792;10.358;2023-03-23T00:46:26;14.50;99.90
22850;DHT22;11591;44.792;10.358;2023-03-23T00:48:55;14.60;99.90
22850;DHT22;11591;44.792;10.358;2023-03-23T00:51:23;14.70;99.90
22850;DHT22;11591;44.792;10.358;2023-03-23T00:53:49;14.70;99.90
22850;DHT22;11591;44.792;10.358;2023-03-23T00:56:15;14.70;99.90
22850;DHT22;11591;44.792;10.358;2023-03-23T00:58:41;14.70;99.90
22850;DHT22;11591;44.792;10.358;2023-03-23T01:01:08;14.80;99.90
22850;DHT22;11591;44.792;10.358;2023-03-23T01:03:34;14.80;99.90
22850;DHT22;11591;44.792;10.358;2023-03-23T01:06:05;14.80;99.90
22850;DHT22;11591;44.792;10.358;2023-03-23T01:08:34;14.80;99.90
22850;DHT22;11591;44.792;10.358;2023-03-23T01:11:04;14.80;99.90
22850;DHT22;11591;44.792;10.358;2023-03-23T01:13:31;14.70;99.90
22850;DHT22;11591;44.792;10.358;2023-03-23T01:15:57;14.80;99.90
22850;DHT22;11591;44.792;10.358;2023-03-23T01:18:23;14.80;99.90
22850;DHT22;11591;44.792;10.358;2023-03-23T01:20:49;14.70;99.90
22850;DHT22;11591;44.792;10.358;2023-03-23T01:23:14;14.70;99.90
22850;DHT22;11591;44.792;10.358;2023-03-23T01:25:40;14.70;99.90
22850;DHT22;11591;44.792;10.358;2023-03-23T01:28:06;14.60;99.90
22850;DHT22;11591;44.792;10.358;2023-03-23T01:30:32;14.70;99.90
22850;DHT22;11591;44.792;10.358;2023-03-23T01:32:58;14.70;99.90
22850;DHT22;11591;44.792;10.358;2023-03-23T01:35:24;14.70;99.90
22850;DHT22;11591;44.792;10.358;2023-03-23T01:37:51;14.70;99.90
22850;DHT22;11591;44.792;10.358;2023-03-23T01:40:18;14.60;99.90
22850;DHT22;11591;44.792;10.358;2023-03-23T01:42:44;14.70;99.90
22850;DHT22;11591;44.792;10.358;2023-03-23T01:47:47;14.70;99.90
22850;DHT22;11591;44.792;10.358;2023-03-23T01:50:13;14.70;99.90
22850;DHT22;11591;44.792;10.358;2023-03-23T01:52:40;14.60;99.90
22850;DHT22;11591;44.792;10.358;2023-03-23T01:55:06;14.60;99.90
22850;DHT22;11591;44.792;10.358;2023-03-23T01:57:33;14.50;99.90
22850;DHT22;11591;44.792;10.358;2023-03-23T02:00:04;14.50;99.90
22850;DHT22;11591;44.792;10.358;2023-03-23T02:02:45;14.50;99.90
22850;DHT22;11591;44.792;10.358;2023-03-23T02:05:20;14.50;99.90
22850;DHT22;11591;44.792;10.358;2023-03-23T02:07:47;14.50;99.90
22850;DHT22;11591;44.792;10.358;2023-03-23T02:10:14;14.60;99.90
22850;DHT22;11591;44.792;10.358;2023-03-23T02:12:42;14.70;99.90
22850;DHT22;11591;44.792;10.358;2023-03-23T02:15:10;14.70;99.90
22850;DHT22;11591;44.792;10.358;2023-03-23T02:18:31;14.70;99.90
22850;DHT22;11591;44.792;10.358;2023-03-23T02:23:21;14.60;99.90
22850;DHT22;11591;44.792;10.358;2023-03-23T02:26:11;14.60;99.90
22850;DHT22;11591;44.792;10.358;2023-03-23T02:39:57;14.20;99.90
22850;DHT22;11591;44.792;10.358;2023-03-23T02:42:27;14.10;99.90
22850;DHT22;11591;44.792;10.358;2023-03-23T02:44:59;14.00;99.90
22850;DHT22;11591;44.792;10.358;2023-03-23T02:47:29;14.00;99.90
22850;DHT22;11591;44.792;10.358;2023-03-23T02:49:57;13.90;99.90
22850;DHT22;11591;44.792;10.358;2023-03-23T02:52:31;13.90;99.90
22850;DHT22;11591;44.792;10.358;2023-03-23T02:55:00;13.90;99.90
22850;DHT22;11591;44.792;10.358;2023-03-23T02:57:28;13.80;99.90
22850;DHT22;11591;44.792;10.358;2023-03-23T02:59:56;13.70;99.90
22850;DHT22;11591;44.792;10.358;2023-03-23T03:02:28;13.70;99.90
22850;DHT22;11591;44.792;10.358;2023-03-23T03:05:22;13.70;99.90
22850;DHT22;11591;44.792;10.358;2023-03-23T03:13:24;13.70;99.90
22850;DHT22;11591;44.792;10.358;2023-03-23T03:15:57;13.70;99.90
22850;DHT22;11591;44.792;10.358;2023-03-23T03:18:28;13.70;99.90
22850;DHT22;11591;44.792;10.358;2023-03-23T03:21:04;13.60;99.90
22850;DHT22;11591;44.792;10.358;2023-03-23T03:23:34;13.60;99.90
22850;DHT22;11591;44.792;10.358;2023-03-23T03:26:03;13.60;99.90
22850;DHT22;11591;44.792;10.358;2023-03-23T03:28:45;13.50;99.90
22850;DHT22;11591;44.792;10.358;2023-03-23T03:31:16;13.50;99.90
22850;DHT22;11591;44.792;10.358;2023-03-23T03:33:43;13.40;99.90
22850;DHT22;11591;44.792;10.358;2023-03-23T03:36:24;13.40;99.90
22850;DHT22;11591;44.792;10.358;2023-03-23T03:38:52;13.30;99.90
22850;DHT22;11591;44.792;10.358;2023-03-23T03:41:20;13.30;99.90
22850;DHT22;11591;44.792;10.358;2023-03-23T03:43:46;13.20;99.90
22850;DHT22;11591;44.792;10.358;2023-03-23T03:46:12;13.20;99.90
22850;DHT22;11591;44.792;10.358;2023-03-23T03:48:38;13.20;99.90
22850;DHT22;11591;44.792;10.358;2023-03-23T03:51:04;13.30;99.90
22850;DHT22;11591;44.792;10.358;2023-03-23T03:53:34;13.30;99.90
22850;DHT22;11591;44.792;10.358;2023-03-23T03:56:00;13.40;99.90
22850;DHT22;11591;44.792;10.358;2023-03-23T03:58:33;13.40;99.90
22850;DHT22;11591;44.792;10.358;2023-03-23T04:01:11;13.50;99.90
22850;DHT22;11591;44.792;10.358;2023-03-23T04:03:38;13.50;99.90
22850;DHT22;11591;44.792;10.358;2023-03-23T04:06:10;13.60;99.90
22850;DHT22;11591;44.792;10.358;2023-03-23T04:08:38;13.60;99.90
22850;DHT22;11591;44.792;10.358;2023-03-23T04:11:08;13.60;99.90
22850;DHT22;11591;44.792;10.358;2023-03-23T04:13:34;13.70;99.90
22850;DHT22;11591;44.792;10.358;2023-03-23T04:16:20;13.70;99.90
22850;DHT22;11591;44.792;10.358;2023-03-23T04:18:48;13.70;99.90
22850;DHT22;11591;44.792;10.358;2023-03-23T04:21:15;13.70;99.90
22850;DHT22;11591;44.792;10.358;2023-03-23T04:23:44;13.70;99.90
22850;DHT22;11591;44.792;10.358;2023-03-23T04:26:09;13.60;99.90
22850;DHT22;11591;44.792;10.358;2023-03-23T04:28:42;13.50;99.90
22850;DHT22;11591;44.792;10.358;2023-03-23T04:31:27;13.50;99.90
22850;DHT22;11591;44.792;10.358;2023-03-23T04:34:02;13.40;99.90
22850;DHT22;11591;44.792;10.358;2023-03-23T04:36:35;13.40;99.90
22850;DHT22;11591;44.792;10.358;2023-03-23T04:39:08;13.40;99.90
22850;DHT22;11591;44.792;10.358;2023-03-23T04:41:37;13.40;99.90
22850;DHT22;11591;44.792;10.358;2023-03-23T04:44:31;13.40;99.90
22850;DHT22;11591;44.792;10.358;2023-03-23T04:47:03;13.40;99.90
22850;DHT22;11591;44.792;10.358;2023-03-23T04:49:33;13.40;99.90
22850;DHT22;11591;44.792;10.358;2023-03-23T04:52:11;13.50;99.90
22850;DHT22;11591;44.792;10.358;2023-03-23T04:54:49;13.50;99.90
22850;DHT22;11591;44.792;10.358;2023-03-23T04:57:15;13.60;99.90
22850;DHT22;11591;44.792;10.358;2023-03-23T04:59:49;13.60;99.90
22850;DHT22;11591;44.792;10.358;2023-03-23T05:02:20;13.60;99.90
22850;DHT22;11591;44.792;10.358;2023-03-23T05:04:48;13.60;99.90
22850;DHT22;11591;44.792;10.358;2023-03-23T05:07:18;13.60;99.90
22850;DHT22;11591;44.792;10.358;2023-03-23T05:09:48;13.60;99.90
22850;DHT22;11591;44.792;10.358;2023-03-23T05:12:15;13.60;99.90
22850;DHT22;11591;44.792;10.358;2023-03-23T05:15:02;13.60;99.90
22850;DHT22;11591;44.792;10.358;2023-03-23T05:17:30;13.70;99.90
22850;DHT22;11591;44.792;10.358;2023-03-23T05:20:00;13.70;99.90
22850;DHT22;11591;44.792;10.358;2023-03-23T05:22:38;13.70;99.90
22850;DHT22;11591;44.792;10.358;2023-03-23T05:25:07;13.60;99.90
22850;DHT22;11591;44.792;10.358;2023-03-23T05:27:40;13.60;99.90
22850;DHT22;11591;44.792;10.358;2023-03-23T05:30:21;13.60;99.90
22850;DHT22;11591;44.792;10.358;2023-03-23T05:32:48;13.60;99.90
22850;DHT22;11591;44.792;10.358;2023-03-23T05:35:39;13.60;99.90
22850;DHT22;11591;44.792;10.358;2023-03-23T05:38:05;13.60;99.90
22850;DHT22;11591;44.792;10.358;2023-03-23T05:40:31;13.60;99.90
22850;DHT22;11591;44.792;10.358;2023-03-23T05:43:02;13.70;99.90
22850;DHT22;11591;44.792;10.358;2023-03-23T05:45:39;13.70;99.90
22850;DHT22;11591;44.792;10.358;2023-03-23T05:48:05;13.80;99.90
22850;DHT22;11591;44.792;10.358;2023-03-23T05:50:32;13.80;99.90
22850;DHT22;11591;44.792;10.358;2023-03-23T05:52:59;13.90;99.90
22850;DHT22;11591;44.792;10.358;2023-03-23T05:55:25;13.80;99.90
22850;DHT22;11591;44.792;10.358;2023-03-23T05:58:04;13.80;99.90
22850;DHT22;11591;44.792;10.358;2023-03-23T06:00:34;13.90;99.90
22850;DHT22;11591;44.792;10.358;2023-03-23T06:03:15;13.90;99.90
22850;DHT22;11591;44.792;10.358;2023-03-23T06:05:54;13.90;99.90
22850;DHT22;11591;44.792;10.358;2023-03-23T06:08:26;13.90;99.90
22850;DHT22;11591;44.792;10.358;2023-03-23T06:10:53;13.90;99.90
22850;DHT22;11591;44.792;10.358;2023-03-23T06:13:19;13.90;99.90
22850;DHT22;11591;44.792;10.358;2023-03-23T06:15:48;13.90;99.90
22850;DHT22;11591;44.792;10.358;2023-03-23T06:18:27;13.90;99.90
22850;DHT22;11591;44.792;10.358;2023-03-23T06:21:17;13.90;99.90
22850;DHT22;11591;44.792;10.358;2023-03-23T06:24:01;13.90;99.90
22850;DHT22;11591;44.792;10.358;2023-03-23T06:26:35;13.90;99.90
22850;DHT22;11591;44.792;10.358;2023-03-23T06:29:06;13.90;99.90
22850;DHT22;11591;44.792;10.358;2023-03-23T06:31:42;13.90;99.90
22850;DHT22;11591;44.792;10.358;2023-03-23T06:34:11;13.90;99.90
22850;DHT22;11591;44.792;10.358;2023-03-23T06:36:56;14.00;99.90
22850;DHT22;11591;44.792;10.358;2023-03-23T06:39:45;13.90;99.90
22850;DHT22;11591;44.792;10.358;2023-03-23T06:42:31;13.90;99.90
22850;DHT22;11591;44.792;10.358;2023-03-23T06:45:16;13.80;99.90
22850;DHT22;11591;44.792;10.358;2023-03-23T06:47:46;13.90;99.90
22850;DHT22;11591;44.792;10.358;2023-03-23T06:50:15;13.90;99.90
22850;DHT22;11591;44.792;10.358;2023-03-23T06:52:46;14.00;99.90
22850;DHT22;11591;44.792;10.358;2023-03-23T06:55:13;13.90;99.90
22850;DHT22;11591;44.792;10.358;2023-03-23T06:57:39;14.00;99.90
22850;DHT22;11591;44.792;10.358;2023-03-23T07:00:05;14.00;99.90
22850;DHT22;11591;44.792;10.358;2023-03-23T07:02:42;14.00;99.90
22850;DHT22;11591;44.792;10.358;2023-03-23T07:05:11;14.00;99.90
22850;DHT22;11591;44.792;10.358;2023-03-23T07:07:38;14.00;99.90
22850;DHT22;11591;44.792;10.358;2023-03-23T07:10:17;14.00;99.90
22850;DHT22;11591;44.792;10.358;2023-03-23T07:12:44;14.10;99.90
22850;DHT22;11591;44.792;10.358;2023-03-23T07:15:10;14.20;99.90
22850;DHT22;11591;44.792;10.358;2023-03-23T07:17:38;14.20;99.90
22850;DHT22;11591;44.792;10.358;2023-03-23T07:20:14;14.30;99.90
22850;DHT22;11591;44.792;10.358;2023-03-23T07:22:40;14.30;99.90
22850;DHT22;11591;44.792;10.358;2023-03-23T07:25:17;14.40;99.90
22850;DHT22;11591;44.792;10.358;2023-03-23T07:27:52;14.40;99.90
22850;DHT22;11591;44.792;10.358;2023-03-23T07:30:18;14.40;99.90
22850;DHT22;11591;44.792;10.358;2023-03-23T07:32:44;14.40;99.90
22850;DHT22;11591;44.792;10.358;2023-03-23T07:35:10;14.40;99.90
22850;DHT22;11591;44.792;10.358;2023-03-23T07:37:55;14.50;99.90
22850;DHT22;11591;44.792;10.358;2023-03-23T07:40:22;14.60;99.90
22850;DHT22;11591;44.792;10.358;2023-03-23T07:42:53;14.60;99.90
22850;DHT22;11591;44.792;10.358;2023-03-23T07:45:33;14.70;99.90
22850;DHT22;11591;44.792;10.358;2023-03-23T07:47:59;14.80;99.90
22850;DHT22;11591;44.792;10.358;2023-03-23T07:50:26;14.80;99.90
22850;DHT22;11591;44.792;10.358;2023-03-23T07:52:55;14.80;99.90
22850;DHT22;11591;44.792;10.358;2023-03-23T07:55:23;14.80;99.90
22850;DHT22;11591;44.792;10.358;2023-03-23T07:57:59;14.80;99.90
22850;DHT22;11591;44.792;10.358;2023-03-23T08:00:25;14.80;99.90
22850;DHT22;11591;44.792;10.358;2023-03-23T08:02:56;14.90;99.90
22850;DHT22;11591;44.792;10.358;2023-03-23T08:05:36;14.90;99.90
22850;DHT22;11591;44.792;10.358;2023-03-23T08:08:21;14.90;99.90
22850;DHT22;11591;44.792;10.358;2023-03-23T08:11:27;14.90;99.90
22850;DHT22;11591;44.792;10.358;2023-03-23T08:14:14;15.00;99.90
22850;DHT22;11591;44.792;10.358;2023-03-23T08:17:00;15.10;99.90
22850;DHT22;11591;44.792;10.358;2023-03-23T08:19:52;15.20;99.90
22850;DHT22;11591;44.792;10.358;2023-03-23T08:22:49;15.30;99.90
22850;DHT22;11591;44.792;10.358;2023-03-23T08:25:29;15.40;99.90
22850;DHT22;11591;44.792;10.358;2023-03-23T08:28:15;15.50;99.90
22850;DHT22;11591;44.792;10.358;2023-03-23T08:31:09;15.50;99.90
22850;DHT22;11591;44.792;10.358;2023-03-23T08:33:53;15.50;99.90
22850;DHT22;11591;44.792;10.358;2023-03-23T08:36:36;15.50;99.90
22850;DHT22;11591;44.792;10.358;2023-03-23T08:39:26;15.60;99.90
22850;DHT22;11591;44.792;10.358;2023-03-23T08:42:10;15.50;99.90
22850;DHT22;11591;44.792;10.358;2023-03-23T08:44:50;15.40;99.90
22850;DHT22;11591;44.792;10.358;2023-03-23T08:47:35;15.50;99.90
22850;DHT22;11591;44.792;10.358;2023-03-23T08:50:22;15.50;99.90
22850;DHT22;11591;44.792;10.358;2023-03-23T08:53:04;15.50;99.90
22850;DHT22;11591;44.792;10.358;2023-03-23T08:55:34;15.50;99.90
22850;DHT22;11591;44.792;10.358;2023-03-23T08:58:18;15.60;99.90
22850;DHT22;11591;44.792;10.358;2023-03-23T09:01:05;15.60;99.90
22850;DHT22;11591;44.792;10.358;2023-03-23T09:03:44;15.70;99.90
22850;DHT22;11591;44.792;10.358;2023-03-23T09:06:22;15.80;99.90
22850;DHT22;11591;44.792;10.358;2023-03-23T09:08:48;15.80;99.90
22850;DHT22;11591;44.792;10.358;2023-03-23T09:11:14;15.90;99.90
22850;DHT22;11591;44.792;10.358;2023-03-23T09:13:40;16.00;99.90
22850;DHT22;11591;44.792;10.358;2023-03-23T09:16:07;16.00;99.90
22850;DHT22;11591;44.792;10.358;2023-03-23T09:18:34;16.10;99.90
22850;DHT22;11591;44.792;10.358;2023-03-23T09:21:01;16.20;99.90
22850;DHT22;11591;44.792;10.358;2023-03-23T09:23:28;16.20;99.90
22850;DHT22;11591;44.792;10.358;2023-03-23T09:25:54;16.20;99.90
22850;DHT22;11591;44.792;10.358;2023-03-23T09:28:20;16.20;99.90
22850;DHT22;11591;44.792;10.358;2023-03-23T09:30:46;16.20;99.90
22850;DHT22;11591;44.792;10.358;2023-03-23T09:33:13;16.20;99.90
22850;DHT22;11591;44.792;10.358;2023-03-23T09:35:40;16.20;99.90
22850;DHT22;11591;44.792;10.358;2023-03-23T09:38:07;16.20;99.90
22850;DHT22;11591;44.792;10.358;2023-03-23T09:40:54;16.30;99.90
22850;DHT22;11591;44.792;10.358;2023-03-23T09:44:01;16.30;99.90
22850;DHT22;11591;44.792;10.358;2023-03-23T09:49:24;16.50;99.90
22850;DHT22;11591;44.792;10.358;2023-03-23T09:52:09;16.60;99.90
22850;DHT22;11591;44.792;10.358;2023-03-23T09:54:38;16.70;99.90
22850;DHT22;11591;44.792;10.358;2023-03-23T09:57:13;16.70;99.90
22850;DHT22;11591;44.792;10.358;2023-03-23T10:07:43;16.80;99.90
22850;DHT22;11591;44.792;10.358;2023-03-23T10:10:13;16.80;99.90
22850;DHT22;11591;44.792;10.358;2023-03-23T10:12:49;16.80;99.90
22850;DHT22;11591;44.792;10.358;2023-03-23T10:15:21;16.80;99.90
22850;DHT22;11591;44.792;10.358;2023-03-23T10:17:58;16.90;99.90
22850;DHT22;11591;44.792;10.358;2023-03-23T10:20:59;17.00;99.90
22850;DHT22;11591;44.792;10.358;2023-03-23T10:26:13;16.90;99.90
22850;DHT22;11591;44.792;10.358;2023-03-23T10:28:43;16.90;99.90
22850;DHT22;11591;44.792;10.358;2023-03-23T10:31:13;17.00;99.90
22850;DHT22;11591;44.792;10.358;2023-03-23T10:33:49;17.00;99.90
22850;DHT22;11591;44.792;10.358;2023-03-23T10:39:20;17.10;99.90
22850;DHT22;11591;44.792;10.358;2023-03-23T10:41:47;17.20;99.90
22850;DHT22;11591;44.792;10.358;2023-03-23T10:44:24;17.20;99.90
22850;DHT22;11591;44.792;10.358;2023-03-23T10:50:10;17.30;99.90
22850;DHT22;11591;44.792;10.358;2023-03-23T10:54:56;17.40;99.90
22850;DHT22;11591;44.792;10.358;2023-03-23T10:57:25;17.50;99.90
22850;DHT22;11591;44.792;10.358;2023-03-23T11:02:27;17.60;99.90
22850;DHT22;11591;44.792;10.358;2023-03-23T11:04:57;17.60;99.90
22850;DHT22;11591;44.792;10.358;2023-03-23T11:07:28;17.70;99.90
22850;DHT22;11591;44.792;10.358;2023-03-23T11:09:57;17.70;99.90
22850;DHT22;11591;44.792;10.358;2023-03-23T11:12:24;17.80;99.90
22850;DHT22;11591;44.792;10.358;2023-03-23T11:14:51;17.90;99.90
22850;DHT22;11591;44.792;10.358;2023-03-23T11:17:25;17.90;99.90
22850;DHT22;11591;44.792;10.358;2023-03-23T11:19:52;18.00;99.90
22850;DHT22;11591;44.792;10.358;2023-03-23T11:22:32;18.10;99.90
22850;DHT22;11591;44.792;10.358;2023-03-23T11:25:04;18.10;99.90
22850;DHT22;11591;44.792;10.358;2023-03-23T11:27:30;18.20;99.90
22850;DHT22;11591;44.792;10.358;2023-03-23T11:32:35;18.40;99.90
22850;DHT22;11591;44.792;10.358;2023-03-23T11:35:05;18.40;99.90
22850;DHT22;11591;44.792;10.358;2023-03-23T11:37:46;18.40;99.90
22850;DHT22;11591;44.792;10.358;2023-03-23T11:40:19;18.50;99.90
22850;DHT22;11591;44.792;10.358;2023-03-23T11:45:39;18.50;99.90
22850;DHT22;11591;44.792;10.358;2023-03-23T11:50:53;18.50;99.90
22850;DHT22;11591;44.792;10.358;2023-03-23T11:56:08;18.40;99.90
22850;DHT22;11591;44.792;10.358;2023-03-23T11:58:35;18.50;99.90
22850;DHT22;11591;44.792;10.358;2023-03-23T12:17:23;18.90;99.90
22850;DHT22;11591;44.792;10.358;2023-03-23T12:30:38;19.10;99.90
22850;DHT22;11591;44.792;10.358;2023-03-23T12:44:11;19.10;99.90
22850;DHT22;11591;44.792;10.358;2023-03-23T12:49:19;19.00;99.90
22850;DHT22;11591;44.792;10.358;2023-03-23T12:51:57;19.00;99.90
22850;DHT22;11591;44.792;10.358;2023-03-23T12:57:19;19.20;99.90
22850;DHT22;11591;44.792;10.358;2023-03-23T13:02:44;19.40;99.90
22850;DHT22;11591;44.792;10.358;2023-03-23T13:08:19;19.60;99.90
22850;DHT22;11591;44.792;10.358;2023-03-23T13:10:51;19.70;99.90
22850;DHT22;11591;44.792;10.358;2023-03-23T13:13:24;19.90;99.90
22850;DHT22;11591;44.792;10.358;2023-03-23T13:21:46;20.70;99.90
22850;DHT22;11591;44.792;10.358;2023-03-23T13:24:19;20.90;99.90
22850;DHT22;11591;44.792;10.358;2023-03-23T13:26:45;21.20;99.90
22850;DHT22;11591;44.792;10.358;2023-03-23T13:29:21;21.20;99.90
22850;DHT22;11591;44.792;10.358;2023-03-23T13:31:50;21.20;99.90
22850;DHT22;11591;44.792;10.358;2023-03-23T13:36:57;21.40;99.90
22850;DHT22;11591;44.792;10.358;2023-03-23T13:39:37;21.70;99.90
22850;DHT22;11591;44.792;10.358;2023-03-23T13:42:18;21.80;99.90
22850;DHT22;11591;44.792;10.358;2023-03-23T14:03:11;22.90;99.90
22850;DHT22;11591;44.792;10.358;2023-03-23T14:05:49;23.10;99.90
22850;DHT22;11591;44.792;10.358;2023-03-23T14:11:09;23.50;99.90
22850;DHT22;11591;44.792;10.358;2023-03-23T14:16:27;23.70;99.90
22850;DHT22;11591;44.792;10.358;2023-03-23T14:19:01;23.80;99.90
22850;DHT22;11591;44.792;10.358;2023-03-23T14:21:35;23.80;99.90
22850;DHT22;11591;44.792;10.358;2023-03-23T14:24:23;23.90;99.90
22850;DHT22;11591;44.792;10.358;2023-03-23T14:26:50;24.10;99.90
22850;DHT22;11591;44.792;10.358;2023-03-23T14:29:19;24.10;99.90
22850;DHT22;11591;44.792;10.358;2023-03-23T14:31:50;24.30;99.90
22850;DHT22;11591;44.792;10.358;2023-03-23T14:34:24;24.40;99.60
22850;DHT22;11591;44.792;10.358;2023-03-23T14:36:52;24.50;99.60
22850;DHT22;11591;44.792;10.358;2023-03-23T14:39:31;24.50;99.50
22850;DHT22;11591;44.792;10.358;2023-03-23T14:42:06;24.60;99.40
22850;DHT22;11591;44.792;10.358;2023-03-23T14:44:40;24.70;99.00
22850;DHT22;11591;44.792;10.358;2023-03-23T14:47:13;24.80;99.60
22850;DHT22;11591;44.792;10.358;2023-03-23T14:49:42;24.90;99.10
22850;DHT22;11591;44.792;10.358;2023-03-23T14:52:14;24.90;98.80
22850;DHT22;11591;44.792;10.358;2023-03-23T14:54:42;25.00;98.90
22850;DHT22;11591;44.792;10.358;2023-03-23T14:59:40;25.10;98.50
22850;DHT22;11591;44.792;10.358;2023-03-23T15:02:11;25.20;98.40
22850;DHT22;11591;44.792;10.358;2023-03-23T15:04:39;25.40;98.60
22850;DHT22;11591;44.792;10.358;2023-03-23T15:07:05;25.50;98.00
22850;DHT22;11591;44.792;10.358;2023-03-23T15:09:32;25.60;97.90
22850;DHT22;11591;44.792;10.358;2023-03-23T15:12:02;25.80;97.70
22850;DHT22;11591;44.792;10.358;2023-03-23T15:14:32;25.80;97.90
22850;DHT22;11591;44.792;10.358;2023-03-23T15:16:59;26.00;98.30
22850;DHT22;11591;44.792;10.358;2023-03-23T15:19:32;26.10;98.30
22850;DHT22;11591;44.792;10.358;2023-03-23T15:22:19;26.20;98.10
22850;DHT22;11591;44.792;10.358;2023-03-23T15:24:46;26.40;98.00
22850;DHT22;11591;44.792;10.358;2023-03-23T15:27:33;26.40;97.80
22850;DHT22;11591;44.792;10.358;2023-03-23T15:30:11;26.40;97.60
22850;DHT22;11591;44.792;10.358;2023-03-23T15:32:39;26.60;97.30
22850;DHT22;11591;44.792;10.358;2023-03-23T15:35:17;26.60;97.20
22850;DHT22;11591;44.792;10.358;2023-03-23T15:37:47;26.50;97.10
22850;DHT22;11591;44.792;10.358;2023-03-23T15:40:16;26.70;97.10
22850;DHT22;11591;44.792;10.358;2023-03-23T15:42:42;26.60;96.80
22850;DHT22;11591;44.792;10.358;2023-03-23T15:47:47;26.30;96.90
22850;DHT22;11591;44.792;10.358;2023-03-23T15:52:51;26.10;96.90
22850;DHT22;11591;44.792;10.358;2023-03-23T15:55:23;26.00;97.00
22850;DHT22;11591;44.792;10.358;2023-03-23T15:57:50;25.90;97.00
22850;DHT22;11591;44.792;10.358;2023-03-23T16:00:18;25.80;97.30
22850;DHT22;11591;44.792;10.358;2023-03-23T16:02:51;25.80;97.20
22850;DHT22;11591;44.792;10.358;2023-03-23T16:05:17;25.70;97.50
22850;DHT22;11591;44.792;10.358;2023-03-23T16:07:43;25.50;97.40
22850;DHT22;11591;44.792;10.358;2023-03-23T16:10:20;25.40;97.60
22850;DHT22;11591;44.792;10.358;2023-03-23T16:12:46;25.30;97.60
22850;DHT22;11591;44.792;10.358;2023-03-23T16:15:13;25.10;97.60
22850;DHT22;11591;44.792;10.358;2023-03-23T16:17:39;25.00;97.80
22850;DHT22;11591;44.792;10.358;2023-03-23T16:20:11;25.00;98.20
22850;DHT22;11591;44.792;10.358;2023-03-23T16:22:37;24.90;98.00
22850;DHT22;11591;44.792;10.358;2023-03-23T16:25:04;24.60;98.20
22850;DHT22;11591;44.792;10.358;2023-03-23T16:27:30;24.60;98.30
22850;DHT22;11591;44.792;10.358;2023-03-23T16:29:55;24.50;98.20
22850;DHT22;11591;44.792;10.358;2023-03-23T16:32:23;24.30;98.30
22850;DHT22;11591;44.792;10.358;2023-03-23T16:34:48;24.20;98.30
22850;DHT22;11591;44.792;10.358;2023-03-23T16:37:14;24.10;98.40
22850;DHT22;11591;44.792;10.358;2023-03-23T16:39:41;24.00;99.00
22850;DHT22;11591;44.792;10.358;2023-03-23T16:42:07;23.90;99.00
22850;DHT22;11591;44.792;10.358;2023-03-23T16:44:32;23.80;98.90
22850;DHT22;11591;44.792;10.358;2023-03-23T16:46:58;23.80;98.90
22850;DHT22;11591;44.792;10.358;2023-03-23T16:49:24;23.70;98.80
22850;DHT22;11591;44.792;10.358;2023-03-23T16:51:50;23.60;98.80
22850;DHT22;11591;44.792;10.358;2023-03-23T16:54:16;23.50;98.90
22850;DHT22;11591;44.792;10.358;2023-03-23T16:56:41;23.40;98.90
22850;DHT22;11591;44.792;10.358;2023-03-23T16:59:12;23.30;99.20
22850;DHT22;11591;44.792;10.358;2023-03-23T17:01:38;23.20;99.40
22850;DHT22;11591;44.792;10.358;2023-03-23T17:04:04;23.20;99.40
22850;DHT22;11591;44.792;10.358;2023-03-23T17:06:30;23.00;99.30
22850;DHT22;11591;44.792;10.358;2023-03-23T17:08:55;23.00;99.40
22850;DHT22;11591;44.792;10.358;2023-03-23T17:11:21;22.90;99.50
22850;DHT22;11591;44.792;10.358;2023-03-23T17:13:47;22.80;99.60
22850;DHT22;11591;44.792;10.358;2023-03-23T17:16:13;22.70;99.70
22850;DHT22;11591;44.792;10.358;2023-03-23T17:18:39;22.70;99.70
22850;DHT22;11591;44.792;10.358;2023-03-23T17:21:05;22.50;99.80
22850;DHT22;11591;44.792;10.358;2023-03-23T17:23:31;22.40;99.90
22850;DHT22;11591;44.792;10.358;2023-03-23T17:25:57;22.30;99.90
22850;DHT22;11591;44.792;10.358;2023-03-23T17:28:23;22.10;99.90
22850;DHT22;11591;44.792;10.358;2023-03-23T17:30:50;21.90;99.90
22850;DHT22;11591;44.792;10.358;2023-03-23T17:33:17;21.80;99.90
22850;DHT22;11591;44.792;10.358;2023-03-23T17:35:45;21.70;99.90
22850;DHT22;11591;44.792;10.358;2023-03-23T17:38:11;21.60;99.90
22850;DHT22;11591;44.792;10.358;2023-03-23T17:40:38;21.50;99.90
22850;DHT22;11591;44.792;10.358;2023-03-23T17:43:04;21.50;99.90
22850;DHT22;11591;44.792;10.358;2023-03-23T17:45:30;21.40;99.90
22850;DHT22;11591;44.792;10.358;2023-03-23T17:47:55;21.30;99.90
22850;DHT22;11591;44.792;10.358;2023-03-23T17:50:21;21.20;99.90
22850;DHT22;11591;44.792;10.358;2023-03-23T17:52:47;21.10;99.90
22850;DHT22;11591;44.792;10.358;2023-03-23T17:55:14;20.90;99.90
22850;DHT22;11591;44.792;10.358;2023-03-23T17:57:40;20.70;99.90
22850;DHT22;11591;44.792;10.358;2023-03-23T18:00:07;20.60;99.90
22850;DHT22;11591;44.792;10.358;2023-03-23T18:02:34;20.40;99.90
22850;DHT22;11591;44.792;10.358;2023-03-23T18:05:00;20.30;99.90
22850;DHT22;11591;44.792;10.358;2023-03-23T18:07:26;20.10;99.90
22850;DHT22;11591;44.792;10.358;2023-03-23T18:09:58;20.10;99.90